createdAt,value
2023-04-01T00:04:37.286Z,76.49
2023-04-01T00:09:39.835Z,76.83
2023-04-01T00:14:42.545Z,76.63
2023-04-01T00:19:45.027Z,76.68
2023-04-01T00:24:47.977Z,76.46
2023-04-01T00:29:50.437Z,76.95
2023-04-01T00:34:54.202Z,76.91
2023-04-01T00:39:58.051Z,76.63
2023-04-01T00:45:36.767Z,76.85
2023-04-01T00:50:42.246Z,76.53
2023-04-01T00:55:51.710Z,76.42
2023-04-01T01:00:56.801Z,76.48
2023-04-01T01:06:40.231Z,77.13
2023-04-01T01:12:07.424Z,77.07
2023-04-01T01:17:09.808Z,76.47
2023-04-01T01:22:21.208Z,76.50
2023-04-01T01:27:24.571Z,76.58
2023-04-01T01:32:48.449Z,77.01
2023-04-01T01:38:04.995Z,77.09
2023-04-01T01:43:15.646Z,77.23
2023-04-01T01:48:19.156Z,77.51
2023-04-01T01:53:21.827Z,77.25
2023-04-01T01:58:50.300Z,77.27
2023-04-01T02:03:57.106Z,77.49
2023-04-01T02:09:06.402Z,77.55
2023-04-01T02:14:15.450Z,77.33
2023-04-01T02:19:23.829Z,77.17
2023-04-01T02:24:30.487Z,77.43
2023-04-01T02:29:36.023Z,76.96
2023-04-01T02:34:44.196Z,77.03
2023-04-01T02:39:46.560Z,77.06
2023-04-01T02:44:49.119Z,77.52
2023-04-01T02:49:51.614Z,76.73
2023-04-01T02:54:54.475Z,76.89
2023-04-01T02:59:57.217Z,77.01
2023-04-01T03:04:59.772Z,76.42
2023-04-01T03:10:02.503Z,76.93
2023-04-01T03:15:10.752Z,76.61
2023-04-01T03:20:16.249Z,76.49
2023-04-01T03:25:19.562Z,76.45
2023-04-01T03:30:22.188Z,76.27
2023-04-01T03:35:27.020Z,75.32
2023-04-01T03:40:29.651Z,75.40
2023-04-01T03:45:32.416Z,75.58
2023-04-01T03:50:36.008Z,75.30
2023-04-01T03:55:38.791Z,75.51
2023-04-01T04:00:41.976Z,75.16
2023-04-01T04:05:49.977Z,74.23
2023-04-01T04:10:57.580Z,74.81
2023-04-01T04:16:04.924Z,74.09
2023-04-01T04:21:08.616Z,73.68
2023-04-01T04:26:14.105Z,73.15
2023-04-01T04:31:23.064Z,73.02
2023-04-01T04:36:27.180Z,72.89
2023-04-01T04:41:31.091Z,72.55
2023-04-01T04:46:33.801Z,72.09
2023-04-01T04:51:46.980Z,71.50
2023-04-01T04:56:54.060Z,70.68
2023-04-01T05:01:58.538Z,70.81
2023-04-01T05:07:01.280Z,70.06
2023-04-01T05:12:04.583Z,69.33
2023-04-01T05:17:27.060Z,69.14
2023-04-01T05:22:30.780Z,69.04
2023-04-01T05:27:33.780Z,69.04
2023-04-01T05:32:38.286Z,68.44
2023-04-01T05:37:40.995Z,68.27
2023-04-01T05:42:43.629Z,67.61
2023-04-01T05:47:47.465Z,67.08
2023-04-01T05:52:50.150Z,66.14
2023-04-01T05:57:53.618Z,64.94
2023-04-01T06:02:56.430Z,64.57
2023-04-01T06:08:15.160Z,63.12
2023-04-01T06:13:36.487Z,62.95
2023-04-01T06:18:54.177Z,61.97
2023-04-01T06:24:26.392Z,61.58
2023-04-01T06:29:42.327Z,60.77
2023-04-01T06:35:06.758Z,59.88
2023-04-01T06:40:46.723Z,59.34
2023-04-01T06:46:12.107Z,58.31
2023-04-01T06:51:57.227Z,57.21
2023-04-01T06:57:46.645Z,55.51
2023-04-01T07:03:05.461Z,55.01
2023-04-01T07:08:19.414Z,54.04
2023-04-01T07:13:28.544Z,52.71
2023-04-01T07:18:44.231Z,50.06
2023-04-01T07:23:48.775Z,50.81
2023-04-01T07:29:14.235Z,48.97
2023-04-01T07:34:56.170Z,47.47
2023-04-01T07:40:27.404Z,46.48
2023-04-01T07:45:59.077Z,44.91
2023-04-01T07:51:30.290Z,43.34
2023-04-01T07:56:42.866Z,41.97
2023-04-01T08:02:13.098Z,41.58
2023-04-01T08:07:25.376Z,41.15
2023-04-01T08:13:18.272Z,41.66
2023-04-01T08:19:17.028Z,41.52
2023-04-01T08:24:46.617Z,41.07
2023-04-01T08:30:03.135Z,40.58
2023-04-01T08:35:11.428Z,38.81
2023-04-01T08:40:51.957Z,38.18
2023-04-01T08:46:08.013Z,38.56
2023-04-01T08:51:19.835Z,36.65
2023-04-01T08:56:27.584Z,35.90
2023-04-01T09:01:57.269Z,35.89
2023-04-01T09:07:44.265Z,36.37
2023-04-01T09:13:08.963Z,35.48
2023-04-01T09:19:02.576Z,35.99
2023-04-01T09:24:05.509Z,35.49
2023-04-01T09:29:35.044Z,35.56
2023-04-01T09:34:56.155Z,35.84
2023-04-01T09:40:20.184Z,35.59
2023-04-01T09:45:55.898Z,35.55
2023-04-01T09:51:24.070Z,35.44
2023-04-01T09:56:50.294Z,34.92
2023-04-01T10:02:17.468Z,35.10
2023-04-01T10:07:42.578Z,34.70
2023-04-01T10:12:51.797Z,33.96
2023-04-01T10:18:15.081Z,33.53
2023-04-01T10:23:46.317Z,33.24
2023-04-01T10:29:04.082Z,32.68
2023-04-01T10:34:41.528Z,32.78
2023-04-01T10:39:53.591Z,32.33
2023-04-01T10:45:51.106Z,32.65
2023-04-01T10:51:12.678Z,31.96
2023-04-01T10:56:41.062Z,31.75
2023-04-01T11:02:51.303Z,31.01
2023-04-01T11:08:40.065Z,30.94
2023-04-01T11:14:19.180Z,30.20
2023-04-01T11:19:53.908Z,29.61
2023-04-01T11:25:26.485Z,28.98
2023-04-01T11:30:56.908Z,28.36
2023-04-01T11:36:41.670Z,27.87
2023-04-01T11:41:55.082Z,28.80
2023-04-01T11:47:34.973Z,28.12
2023-04-01T11:53:06.960Z,29.34
2023-04-01T11:58:47.258Z,29.73
2023-04-01T12:04:29.075Z,28.91
2023-04-01T12:09:59.731Z,28.19
2023-04-01T12:15:47.578Z,28.29
2023-04-01T12:21:19.897Z,26.95
2023-04-01T12:26:25.355Z,27.36
2023-04-01T12:31:58.324Z,27.28
2023-04-01T12:37:37.400Z,28.07
2023-04-01T12:43:18.533Z,28.92
2023-04-01T12:48:41.882Z,27.99
2023-04-01T12:54:09.350Z,26.85
2023-04-01T12:59:47.337Z,27.05
2023-04-01T13:05:14.796Z,26.04
2023-04-01T13:10:30.264Z,25.53
2023-04-01T13:15:49.960Z,25.06
2023-04-01T13:21:11.271Z,25.71
2023-04-01T13:26:23.978Z,25.52
2023-04-01T13:31:38.132Z,26.65
2023-04-01T13:36:58.006Z,26.39
2023-04-01T13:42:03.761Z,25.58
2023-04-01T13:47:25.297Z,26.16
2023-04-01T13:52:46.646Z,27.81
2023-04-01T13:58:14.982Z,29.64
2023-04-01T14:03:17.580Z,31.21
2023-04-01T14:08:45.306Z,32.44
2023-04-01T14:13:57.148Z,33.11
2023-04-01T14:19:09.989Z,33.34
2023-04-01T14:24:44.744Z,33.52
2023-04-01T14:30:09.234Z,33.83
2023-04-01T14:35:16.616Z,34.54
2023-04-01T14:40:40.121Z,35.28
2023-04-01T14:46:00.979Z,35.75
2023-04-01T14:51:17.573Z,35.84
2023-04-01T14:56:41.471Z,36.69
2023-04-01T15:02:20.951Z,37.31
2023-04-01T15:07:29.274Z,37.25
2023-04-01T15:13:13.507Z,38.34
2023-04-01T15:18:48.715Z,39.26
2023-04-01T15:29:30.231Z,39.72
2023-04-01T15:34:47.336Z,40.07
2023-04-01T15:39:56.071Z,40.50
2023-04-01T15:45:36.318Z,40.88
2023-04-01T15:50:55.836Z,41.97
2023-04-01T15:56:10.842Z,41.79
2023-04-01T16:01:31.809Z,42.33
2023-04-01T16:06:56.271Z,42.91
2023-04-01T16:12:23.420Z,43.32
2023-04-01T16:17:39.004Z,43.71
2023-04-01T16:22:46.773Z,43.58
2023-04-01T16:28:22.156Z,44.38
2023-04-01T16:33:33.383Z,44.21
2023-04-01T16:38:54.565Z,44.79
2023-04-01T16:44:22.239Z,45.17
2023-04-01T16:49:43.600Z,45.00
2023-04-01T16:55:10.028Z,45.84
2023-04-01T17:00:20.345Z,45.91
2023-04-01T17:05:52.577Z,45.96
2023-04-01T17:11:02.640Z,45.91
2023-04-01T17:16:36.326Z,46.45
2023-04-01T17:22:03.238Z,46.38
2023-04-01T17:27:18.255Z,46.75
2023-04-01T17:32:47.005Z,46.43
2023-04-01T17:38:19.084Z,46.73
2023-04-01T17:43:46.272Z,46.73
2023-04-01T17:49:22.394Z,47.09
2023-04-01T17:54:47.404Z,46.95
2023-04-01T17:59:59.087Z,47.17
2023-04-01T18:05:33.089Z,47.37
2023-04-01T18:10:58.781Z,47.44
2023-04-01T18:16:37.461Z,47.85
2023-04-01T18:22:11.453Z,48.14
2023-04-01T18:27:24.072Z,47.98
2023-04-01T18:32:49.767Z,47.83
2023-04-01T18:38:05.432Z,47.65
2023-04-01T18:43:39.724Z,47.74
2023-04-01T18:49:10.189Z,47.51
2023-04-01T18:54:15.259Z,47.16
2023-04-01T18:59:30.472Z,47.46
2023-04-01T19:04:59.321Z,47.18
2023-04-01T19:10:08.650Z,46.96
2023-04-01T19:15:28.928Z,47.42
2023-04-01T19:20:58.079Z,47.21
2023-04-01T19:26:05.306Z,47.50
2023-04-01T19:31:49.297Z,48.15
2023-04-01T19:37:06.866Z,48.34
2023-04-01T19:42:33.750Z,48.35
2023-04-01T19:47:51.884Z,48.91
2023-04-01T19:52:57.768Z,49.01
2023-04-01T19:58:32.568Z,49.68
2023-04-01T20:03:56.724Z,49.95
2023-04-01T20:09:19.599Z,50.58
2023-04-01T20:14:37.899Z,51.19
2023-04-01T20:19:52.499Z,51.03
2023-04-01T20:25:03.160Z,51.75
2023-04-01T20:30:40.522Z,51.83
2023-04-01T20:36:11.171Z,52.46
2023-04-01T20:41:27.929Z,52.88
2023-04-01T20:46:35.126Z,53.32
2023-04-01T20:51:44.863Z,53.77
2023-04-01T20:57:03.649Z,54.16
2023-04-01T21:02:18.672Z,54.57
2023-04-01T21:07:38.715Z,54.89
2023-04-01T21:12:57.782Z,55.02
2023-04-01T21:18:25.720Z,55.09
2023-04-01T21:23:30.940Z,55.13
2023-04-01T21:28:49.001Z,55.05
2023-04-01T21:34:19.361Z,55.14
2023-04-01T21:39:28.523Z,55.50
2023-04-01T21:45:01.869Z,55.49
2023-04-01T21:50:09.120Z,55.81
2023-04-01T21:55:28.805Z,56.01
2023-04-01T22:00:37.780Z,55.88
2023-04-01T22:06:11.557Z,56.35
2023-04-01T22:17:04.682Z,56.10
2023-04-01T22:22:17.424Z,56.76
2023-04-01T22:27:31.274Z,56.84
2023-04-01T22:32:46.722Z,56.61
2023-04-01T22:38:09.373Z,56.39
2023-04-01T22:43:16.691Z,56.99
2023-04-01T22:48:35.406Z,56.52
2023-04-01T22:53:46.973Z,56.68
2023-04-01T22:59:04.341Z,56.08
2023-04-01T23:04:07.720Z,55.79
2023-04-01T23:09:16.556Z,56.34
2023-04-01T23:14:21.851Z,56.44
2023-04-01T23:19:44.830Z,56.42
2023-04-01T23:25:12.163Z,56.72
2023-04-01T23:30:47.056Z,57.32
2023-04-01T23:36:11.866Z,57.40
2023-04-01T23:41:33.938Z,57.50
2023-04-01T23:46:40.131Z,57.75
2023-04-01T23:52:30.570Z,57.79
2023-04-01T23:57:38.082Z,58.13
